sensor_id;sensor_type;location;lat;lon;timestamp;temperature;humidity
20750;DHT22;10535;50.664;4.564;2023-02-03T00:02:14;9.70;99.90
20750;DHT22;10535;50.664;4.564;2023-02-03T00:04:40;9.90;99.90
20750;DHT22;10535;50.664;4.564;2023-02-03T00:07:06;9.90;99.90
20750;DHT22;10535;50.664;4.564;2023-02-03T00:09:33;9.90;99.90
20750;DHT22;10535;50.664;4.564;2023-02-03T00:11:59;9.90;99.90
20750;DHT22;10535;50.664;4.564;2023-02-03T00:14:25;9.90;99.90
20750;DHT22;10535;50.664;4.564;2023-02-03T00:16:50;9.90;99.90
20750;DHT22;10535;50.664;4.564;2023-02-03T00:19:16;9.80;99.90
20750;DHT22;10535;50.664;4.564;2023-02-03T00:21:41;9.70;99.90
20750;DHT22;10535;50.664;4.564;2023-02-03T00:24:07;9.60;99.90
20750;DHT22;10535;50.664;4.564;2023-02-03T00:26:33;9.70;99.90
20750;DHT22;10535;50.664;4.564;2023-02-03T00:28:59;9.80;99.90
20750;DHT22;10535;50.664;4.564;2023-02-03T00:31:25;9.80;99.90
20750;DHT22;10535;50.664;4.564;2023-02-03T00:33:55;9.80;99.90
20750;DHT22;10535;50.664;4.564;2023-02-03T00:36:22;9.70;99.90
20750;DHT22;10535;50.664;4.564;2023-02-03T00:38:47;9.70;99.90
20750;DHT22;10535;50.664;4.564;2023-02-03T00:41:15;9.80;99.90
20750;DHT22;10535;50.664;4.564;2023-02-03T00:43:40;9.80;99.90
20750;DHT22;10535;50.664;4.564;2023-02-03T00:46:06;9.70;99.90
20750;DHT22;10535;50.664;4.564;2023-02-03T00:48:32;9.80;99.90
20750;DHT22;10535;50.664;4.564;2023-02-03T00:50:57;9.80;99.90
20750;DHT22;10535;50.664;4.564;2023-02-03T00:53:23;9.90;99.90
20750;DHT22;10535;50.664;4.564;2023-02-03T00:55:48;9.80;99.90
20750;DHT22;10535;50.664;4.564;2023-02-03T00:58:14;9.90;99.90
20750;DHT22;10535;50.664;4.564;2023-02-03T01:00:40;9.90;99.90
20750;DHT22;10535;50.664;4.564;2023-02-03T01:03:05;9.80;99.90
20750;DHT22;10535;50.664;4.564;2023-02-03T01:05:31;9.80;99.90
20750;DHT22;10535;50.664;4.564;2023-02-03T01:07:57;9.70;99.90
20750;DHT22;10535;50.664;4.564;2023-02-03T01:10:23;9.70;99.90
20750;DHT22;10535;50.664;4.564;2023-02-03T01:12:49;9.70;99.90
20750;DHT22;10535;50.664;4.564;2023-02-03T01:15:15;9.80;99.90
20750;DHT22;10535;50.664;4.564;2023-02-03T01:17:40;9.90;99.90
20750;DHT22;10535;50.664;4.564;2023-02-03T01:20:06;9.70;99.90
20750;DHT22;10535;50.664;4.564;2023-02-03T01:22:32;9.80;99.90
20750;DHT22;10535;50.664;4.564;2023-02-03T01:24:58;9.80;99.90
20750;DHT22;10535;50.664;4.564;2023-02-03T01:27:23;9.80;99.90
20750;DHT22;10535;50.664;4.564;2023-02-03T01:29:49;9.80;99.90
20750;DHT22;10535;50.664;4.564;2023-02-03T01:32:14;9.70;99.90
20750;DHT22;10535;50.664;4.564;2023-02-03T01:34:40;9.80;99.90
20750;DHT22;10535;50.664;4.564;2023-02-03T01:37:05;9.70;99.90
20750;DHT22;10535;50.664;4.564;2023-02-03T01:39:31;9.70;99.90
20750;DHT22;10535;50.664;4.564;2023-02-03T01:41:57;9.80;99.90
20750;DHT22;10535;50.664;4.564;2023-02-03T01:44:53;9.70;99.90
20750;DHT22;10535;50.664;4.564;2023-02-03T01:47:33;9.80;99.90
20750;DHT22;10535;50.664;4.564;2023-02-03T01:50:31;9.80;99.90
20750;DHT22;10535;50.664;4.564;2023-02-03T01:53:02;9.60;99.90
20750;DHT22;10535;50.664;4.564;2023-02-03T01:55:34;9.80;99.90
20750;DHT22;10535;50.664;4.564;2023-02-03T01:58:10;9.60;99.90
20750;DHT22;10535;50.664;4.564;2023-02-03T02:00:37;9.70;99.90
20750;DHT22;10535;50.664;4.564;2023-02-03T02:03:04;9.80;99.90
20750;DHT22;10535;50.664;4.564;2023-02-03T02:06:03;9.70;99.90
20750;DHT22;10535;50.664;4.564;2023-02-03T02:08:30;9.70;99.90
20750;DHT22;10535;50.664;4.564;2023-02-03T02:11:00;9.70;99.90
20750;DHT22;10535;50.664;4.564;2023-02-03T02:13:27;9.70;99.90
20750;DHT22;10535;50.664;4.564;2023-02-03T02:29:06;9.70;99.90
20750;DHT22;10535;50.664;4.564;2023-02-03T02:31:38;9.70;99.90
20750;DHT22;10535;50.664;4.564;2023-02-03T02:39:50;9.70;99.90
20750;DHT22;10535;50.664;4.564;2023-02-03T02:42:30;9.70;99.90
20750;DHT22;10535;50.664;4.564;2023-02-03T02:45:15;9.70;99.90
20750;DHT22;10535;50.664;4.564;2023-02-03T02:47:42;9.70;99.90
20750;DHT22;10535;50.664;4.564;2023-02-03T02:50:17;9.60;99.90
20750;DHT22;10535;50.664;4.564;2023-02-03T02:52:46;9.60;99.90
20750;DHT22;10535;50.664;4.564;2023-02-03T02:55:26;9.70;99.90
20750;DHT22;10535;50.664;4.564;2023-02-03T02:57:55;9.70;99.90
20750;DHT22;10535;50.664;4.564;2023-02-03T03:00:22;9.70;99.90
20750;DHT22;10535;50.664;4.564;2023-02-03T03:02:48;9.80;99.90
20750;DHT22;10535;50.664;4.564;2023-02-03T03:05:16;9.80;99.90
20750;DHT22;10535;50.664;4.564;2023-02-03T03:07:47;9.80;99.90
20750;DHT22;10535;50.664;4.564;2023-02-03T03:10:18;9.70;99.90
20750;DHT22;10535;50.664;4.564;2023-02-03T03:12:54;9.70;99.90
20750;DHT22;10535;50.664;4.564;2023-02-03T03:15:26;9.70;99.90
20750;DHT22;10535;50.664;4.564;2023-02-03T03:18:13;9.80;99.90
20750;DHT22;10535;50.664;4.564;2023-02-03T03:20:42;9.80;99.90
20750;DHT22;10535;50.664;4.564;2023-02-03T03:23:23;9.80;99.90
20750;DHT22;10535;50.664;4.564;2023-02-03T03:26:01;9.70;99.90
20750;DHT22;10535;50.664;4.564;2023-02-03T03:31:26;9.80;99.90
20750;DHT22;10535;50.664;4.564;2023-02-03T03:33:52;9.90;99.90
20750;DHT22;10535;50.664;4.564;2023-02-03T03:36:39;9.80;99.90
20750;DHT22;10535;50.664;4.564;2023-02-03T03:44:20;9.70;99.90
20750;DHT22;10535;50.664;4.564;2023-02-03T03:46:54;9.70;99.90
20750;DHT22;10535;50.664;4.564;2023-02-03T03:49:22;9.80;99.90
20750;DHT22;10535;50.664;4.564;2023-02-03T03:51:55;9.80;99.90
20750;DHT22;10535;50.664;4.564;2023-02-03T03:54:23;9.70;99.90
20750;DHT22;10535;50.664;4.564;2023-02-03T03:56:57;9.70;99.90
20750;DHT22;10535;50.664;4.564;2023-02-03T03:59:25;9.70;99.90
20750;DHT22;10535;50.664;4.564;2023-02-03T04:01:53;9.80;99.90
20750;DHT22;10535;50.664;4.564;2023-02-03T04:04:20;9.80;99.90
20750;DHT22;10535;50.664;4.564;2023-02-03T04:06:47;9.70;99.90
20750;DHT22;10535;50.664;4.564;2023-02-03T04:09:13;9.60;99.90
20750;DHT22;10535;50.664;4.564;2023-02-03T04:11:38;9.70;99.90
20750;DHT22;10535;50.664;4.564;2023-02-03T04:14:22;9.80;99.90
20750;DHT22;10535;50.664;4.564;2023-02-03T04:16:48;9.70;99.90
20750;DHT22;10535;50.664;4.564;2023-02-03T04:19:13;9.70;99.90
20750;DHT22;10535;50.664;4.564;2023-02-03T04:21:39;9.80;99.90
20750;DHT22;10535;50.664;4.564;2023-02-03T04:24:05;9.80;99.90
20750;DHT22;10535;50.664;4.564;2023-02-03T04:26:30;9.80;99.90
20750;DHT22;10535;50.664;4.564;2023-02-03T04:28:56;9.90;99.90
20750;DHT22;10535;50.664;4.564;2023-02-03T04:31:22;9.80;99.90
20750;DHT22;10535;50.664;4.564;2023-02-03T04:33:47;9.80;99.90
20750;DHT22;10535;50.664;4.564;2023-02-03T04:36:13;9.90;99.90
20750;DHT22;10535;50.664;4.564;2023-02-03T04:38:39;9.80;99.90
20750;DHT22;10535;50.664;4.564;2023-02-03T04:41:05;9.80;99.90
20750;DHT22;10535;50.664;4.564;2023-02-03T04:43:30;9.80;99.90
20750;DHT22;10535;50.664;4.564;2023-02-03T04:45:58;9.90;99.90
20750;DHT22;10535;50.664;4.564;2023-02-03T04:48:25;9.90;99.90
20750;DHT22;10535;50.664;4.564;2023-02-03T04:50:50;9.90;99.90
20750;DHT22;10535;50.664;4.564;2023-02-03T04:53:16;9.90;99.90
20750;DHT22;10535;50.664;4.564;2023-02-03T04:55:46;9.90;99.90
20750;DHT22;10535;50.664;4.564;2023-02-03T04:58:12;10.00;99.90
20750;DHT22;10535;50.664;4.564;2023-02-03T05:00:38;9.80;99.90
20750;DHT22;10535;50.664;4.564;2023-02-03T05:03:03;9.80;99.90
20750;DHT22;10535;50.664;4.564;2023-02-03T05:05:29;9.70;99.90
20750;DHT22;10535;50.664;4.564;2023-02-03T05:07:55;9.70;99.90
20750;DHT22;10535;50.664;4.564;2023-02-03T05:10:20;9.70;99.90
20750;DHT22;10535;50.664;4.564;2023-02-03T05:12:46;9.80;99.90
20750;DHT22;10535;50.664;4.564;2023-02-03T05:15:11;10.00;99.90
20750;DHT22;10535;50.664;4.564;2023-02-03T05:17:37;9.90;99.90
20750;DHT22;10535;50.664;4.564;2023-02-03T05:20:05;9.80;99.90
20750;DHT22;10535;50.664;4.564;2023-02-03T05:22:30;9.80;99.90
20750;DHT22;10535;50.664;4.564;2023-02-03T05:24:56;9.80;99.90
20750;DHT22;10535;50.664;4.564;2023-02-03T05:27:22;9.80;99.90
20750;DHT22;10535;50.664;4.564;2023-02-03T05:29:47;9.70;99.90
20750;DHT22;10535;50.664;4.564;2023-02-03T05:32:13;9.70;99.90
20750;DHT22;10535;50.664;4.564;2023-02-03T05:34:40;9.70;99.90
20750;DHT22;10535;50.664;4.564;2023-02-03T05:37:05;9.80;99.90
20750;DHT22;10535;50.664;4.564;2023-02-03T05:39:31;9.80;99.90
20750;DHT22;10535;50.664;4.564;2023-02-03T05:41:56;9.80;99.90
20750;DHT22;10535;50.664;4.564;2023-02-03T05:44:25;9.90;99.90
20750;DHT22;10535;50.664;4.564;2023-02-03T05:46:52;9.80;99.90
20750;DHT22;10535;50.664;4.564;2023-02-03T05:49:18;9.70;99.90
20750;DHT22;10535;50.664;4.564;2023-02-03T05:51:45;9.80;99.90
20750;DHT22;10535;50.664;4.564;2023-02-03T05:54:11;9.80;99.90
20750;DHT22;10535;50.664;4.564;2023-02-03T05:56:37;9.80;99.90
20750;DHT22;10535;50.664;4.564;2023-02-03T05:59:03;9.70;99.90
20750;DHT22;10535;50.664;4.564;2023-02-03T06:01:30;9.70;99.90
20750;DHT22;10535;50.664;4.564;2023-02-03T06:03:56;9.90;99.90
20750;DHT22;10535;50.664;4.564;2023-02-03T06:06:21;9.70;99.90
20750;DHT22;10535;50.664;4.564;2023-02-03T06:08:47;9.80;99.90
20750;DHT22;10535;50.664;4.564;2023-02-03T06:11:13;9.80;99.90
20750;DHT22;10535;50.664;4.564;2023-02-03T06:13:38;9.80;99.90
20750;DHT22;10535;50.664;4.564;2023-02-03T06:16:04;9.90;99.90
20750;DHT22;10535;50.664;4.564;2023-02-03T06:18:30;9.80;99.90
20750;DHT22;10535;50.664;4.564;2023-02-03T06:20:56;9.90;99.90
20750;DHT22;10535;50.664;4.564;2023-02-03T06:23:21;9.80;99.90
20750;DHT22;10535;50.664;4.564;2023-02-03T06:25:48;9.80;99.90
20750;DHT22;10535;50.664;4.564;2023-02-03T06:28:14;9.80;99.90
20750;DHT22;10535;50.664;4.564;2023-02-03T06:30:40;9.80;99.90
20750;DHT22;10535;50.664;4.564;2023-02-03T06:33:05;9.80;99.90
20750;DHT22;10535;50.664;4.564;2023-02-03T06:35:31;9.80;99.90
20750;DHT22;10535;50.664;4.564;2023-02-03T06:37:57;9.80;99.90
20750;DHT22;10535;50.664;4.564;2023-02-03T06:40:22;9.70;99.90
20750;DHT22;10535;50.664;4.564;2023-02-03T06:42:49;9.70;99.90
20750;DHT22;10535;50.664;4.564;2023-02-03T06:45:15;9.80;99.90
20750;DHT22;10535;50.664;4.564;2023-02-03T06:47:42;9.70;99.90
20750;DHT22;10535;50.664;4.564;2023-02-03T06:50:10;9.70;99.90
20750;DHT22;10535;50.664;4.564;2023-02-03T06:52:36;9.70;99.90
20750;DHT22;10535;50.664;4.564;2023-02-03T06:55:03;9.90;99.90
20750;DHT22;10535;50.664;4.564;2023-02-03T06:57:29;9.70;99.90
20750;DHT22;10535;50.664;4.564;2023-02-03T06:59:54;9.90;99.90
20750;DHT22;10535;50.664;4.564;2023-02-03T07:02:20;9.90;99.90
20750;DHT22;10535;50.664;4.564;2023-02-03T07:04:46;9.90;99.90
20750;DHT22;10535;50.664;4.564;2023-02-03T07:07:12;9.80;99.90
20750;DHT22;10535;50.664;4.564;2023-02-03T07:09:38;9.80;99.90
20750;DHT22;10535;50.664;4.564;2023-02-03T07:12:06;9.90;99.90
20750;DHT22;10535;50.664;4.564;2023-02-03T07:14:32;9.80;99.90
20750;DHT22;10535;50.664;4.564;2023-02-03T07:17:00;9.80;99.90
20750;DHT22;10535;50.664;4.564;2023-02-03T07:19:26;9.90;99.90
20750;DHT22;10535;50.664;4.564;2023-02-03T07:21:52;9.90;99.90
20750;DHT22;10535;50.664;4.564;2023-02-03T07:24:17;9.90;99.90
20750;DHT22;10535;50.664;4.564;2023-02-03T07:26:43;9.70;99.90
20750;DHT22;10535;50.664;4.564;2023-02-03T07:29:08;9.60;99.90
20750;DHT22;10535;50.664;4.564;2023-02-03T07:31:34;9.80;99.90
20750;DHT22;10535;50.664;4.564;2023-02-03T07:34:00;9.80;99.90
20750;DHT22;10535;50.664;4.564;2023-02-03T07:36:27;9.80;99.90
20750;DHT22;10535;50.664;4.564;2023-02-03T07:38:53;9.80;99.90
20750;DHT22;10535;50.664;4.564;2023-02-03T07:41:19;9.80;99.90
20750;DHT22;10535;50.664;4.564;2023-02-03T07:43:45;9.70;99.90
20750;DHT22;10535;50.664;4.564;2023-02-03T07:46:11;9.80;99.90
20750;DHT22;10535;50.664;4.564;2023-02-03T07:48:37;9.80;99.90
20750;DHT22;10535;50.664;4.564;2023-02-03T07:51:02;9.90;99.90
20750;DHT22;10535;50.664;4.564;2023-02-03T07:53:28;10.00;99.90
20750;DHT22;10535;50.664;4.564;2023-02-03T07:55:57;10.00;99.90
20750;DHT22;10535;50.664;4.564;2023-02-03T07:58:23;10.00;99.90
20750;DHT22;10535;50.664;4.564;2023-02-03T08:00:49;10.10;99.90
20750;DHT22;10535;50.664;4.564;2023-02-03T08:03:15;10.00;99.90
20750;DHT22;10535;50.664;4.564;2023-02-03T08:05:40;10.10;99.90
20750;DHT22;10535;50.664;4.564;2023-02-03T08:08:06;10.00;99.90
20750;DHT22;10535;50.664;4.564;2023-02-03T08:10:31;10.00;99.90
20750;DHT22;10535;50.664;4.564;2023-02-03T08:12:57;10.10;99.90
20750;DHT22;10535;50.664;4.564;2023-02-03T08:15:23;10.10;99.90
20750;DHT22;10535;50.664;4.564;2023-02-03T08:17:49;10.00;99.90
20750;DHT22;10535;50.664;4.564;2023-02-03T08:20:15;10.00;99.90
20750;DHT22;10535;50.664;4.564;2023-02-03T08:22:41;10.20;99.90
20750;DHT22;10535;50.664;4.564;2023-02-03T08:25:07;10.20;99.90
20750;DHT22;10535;50.664;4.564;2023-02-03T08:27:33;10.20;99.90
20750;DHT22;10535;50.664;4.564;2023-02-03T08:29:58;10.10;99.90
20750;DHT22;10535;50.664;4.564;2023-02-03T08:32:25;10.10;99.90
20750;DHT22;10535;50.664;4.564;2023-02-03T08:34:52;10.10;99.90
20750;DHT22;10535;50.664;4.564;2023-02-03T08:37:20;10.10;99.90
20750;DHT22;10535;50.664;4.564;2023-02-03T08:39:47;10.10;99.90
20750;DHT22;10535;50.664;4.564;2023-02-03T08:42:13;10.00;99.90
20750;DHT22;10535;50.664;4.564;2023-02-03T08:44:38;10.10;99.90
20750;DHT22;10535;50.664;4.564;2023-02-03T08:47:05;10.10;99.90
20750;DHT22;10535;50.664;4.564;2023-02-03T08:49:32;10.10;99.90
20750;DHT22;10535;50.664;4.564;2023-02-03T08:52:00;10.10;99.90
20750;DHT22;10535;50.664;4.564;2023-02-03T08:54:26;10.20;99.90
20750;DHT22;10535;50.664;4.564;2023-02-03T08:56:52;10.30;99.90
20750;DHT22;10535;50.664;4.564;2023-02-03T08:59:18;10.50;99.90
20750;DHT22;10535;50.664;4.564;2023-02-03T09:01:43;10.70;99.90
20750;DHT22;10535;50.664;4.564;2023-02-03T09:04:14;10.70;99.90
20750;DHT22;10535;50.664;4.564;2023-02-03T09:06:42;10.60;99.90
20750;DHT22;10535;50.664;4.564;2023-02-03T09:09:08;10.70;99.90
20750;DHT22;10535;50.664;4.564;2023-02-03T09:11:34;10.70;99.90
20750;DHT22;10535;50.664;4.564;2023-02-03T09:14:00;10.70;99.90
20750;DHT22;10535;50.664;4.564;2023-02-03T09:16:25;10.80;99.90
20750;DHT22;10535;50.664;4.564;2023-02-03T09:18:51;10.70;99.90
20750;DHT22;10535;50.664;4.564;2023-02-03T09:21:17;10.80;99.90
20750;DHT22;10535;50.664;4.564;2023-02-03T09:23:43;10.80;99.90
20750;DHT22;10535;50.664;4.564;2023-02-03T09:26:11;10.50;99.90
20750;DHT22;10535;50.664;4.564;2023-02-03T09:28:37;10.50;99.90
20750;DHT22;10535;50.664;4.564;2023-02-03T09:31:07;10.50;99.90
20750;DHT22;10535;50.664;4.564;2023-02-03T09:33:33;10.60;99.90
20750;DHT22;10535;50.664;4.564;2023-02-03T09:35:59;10.60;99.90
20750;DHT22;10535;50.664;4.564;2023-02-03T09:38:26;10.50;99.90
20750;DHT22;10535;50.664;4.564;2023-02-03T09:40:58;10.70;99.90
20750;DHT22;10535;50.664;4.564;2023-02-03T09:46:31;10.50;99.90
20750;DHT22;10535;50.664;4.564;2023-02-03T09:49:03;10.50;99.90
20750;DHT22;10535;50.664;4.564;2023-02-03T09:51:36;10.50;99.90
20750;DHT22;10535;50.664;4.564;2023-02-03T09:54:06;10.60;99.90
20750;DHT22;10535;50.664;4.564;2023-02-03T09:56:35;10.60;99.90
20750;DHT22;10535;50.664;4.564;2023-02-03T09:59:03;10.50;99.90
20750;DHT22;10535;50.664;4.564;2023-02-03T10:01:39;10.40;99.90
20750;DHT22;10535;50.664;4.564;2023-02-03T10:06:52;10.30;99.90
20750;DHT22;10535;50.664;4.564;2023-02-03T10:09:37;10.30;99.90
20750;DHT22;10535;50.664;4.564;2023-02-03T10:12:36;10.40;99.90
20750;DHT22;10535;50.664;4.564;2023-02-03T10:15:37;10.50;99.90
20750;DHT22;10535;50.664;4.564;2023-02-03T10:18:07;10.50;99.90
20750;DHT22;10535;50.664;4.564;2023-02-03T10:20:44;10.50;99.90
20750;DHT22;10535;50.664;4.564;2023-02-03T10:23:16;10.60;99.90
20750;DHT22;10535;50.664;4.564;2023-02-03T10:25:53;10.60;99.90
20750;DHT22;10535;50.664;4.564;2023-02-03T10:28:22;10.60;99.90
20750;DHT22;10535;50.664;4.564;2023-02-03T10:30:55;10.70;99.90
20750;DHT22;10535;50.664;4.564;2023-02-03T10:33:24;10.90;99.90
20750;DHT22;10535;50.664;4.564;2023-02-03T10:35:51;10.90;99.90
20750;DHT22;10535;50.664;4.564;2023-02-03T10:40:52;11.00;99.90
20750;DHT22;10535;50.664;4.564;2023-02-03T10:43:17;11.00;99.90
20750;DHT22;10535;50.664;4.564;2023-02-03T10:46:01;11.00;99.90
20750;DHT22;10535;50.664;4.564;2023-02-03T10:48:27;10.90;99.90
20750;DHT22;10535;50.664;4.564;2023-02-03T10:50:53;11.10;99.90
20750;DHT22;10535;50.664;4.564;2023-02-03T10:53:25;11.10;99.90
20750;DHT22;10535;50.664;4.564;2023-02-03T10:58:27;11.10;99.90
20750;DHT22;10535;50.664;4.564;2023-02-03T11:01:13;11.00;99.90
20750;DHT22;10535;50.664;4.564;2023-02-03T11:06:58;10.90;99.90
20750;DHT22;10535;50.664;4.564;2023-02-03T11:09:41;10.90;99.90
20750;DHT22;10535;50.664;4.564;2023-02-03T11:12:14;10.90;99.90
20750;DHT22;10535;50.664;4.564;2023-02-03T11:14:43;11.10;99.90
20750;DHT22;10535;50.664;4.564;2023-02-03T11:17:18;11.30;99.90
20750;DHT22;10535;50.664;4.564;2023-02-03T11:19:46;11.20;99.90
20750;DHT22;10535;50.664;4.564;2023-02-03T11:22:35;11.10;99.90
20750;DHT22;10535;50.664;4.564;2023-02-03T11:25:03;11.20;99.90
20750;DHT22;10535;50.664;4.564;2023-02-03T11:27:31;11.30;99.90
20750;DHT22;10535;50.664;4.564;2023-02-03T11:32:50;11.10;99.90
20750;DHT22;10535;50.664;4.564;2023-02-03T11:35:23;11.00;99.90
20750;DHT22;10535;50.664;4.564;2023-02-03T11:37:55;10.80;99.90
20750;DHT22;10535;50.664;4.564;2023-02-03T11:40:24;11.00;99.90
20750;DHT22;10535;50.664;4.564;2023-02-03T11:47:47;10.90;99.90
20750;DHT22;10535;50.664;4.564;2023-02-03T11:50:19;10.90;99.90
20750;DHT22;10535;50.664;4.564;2023-02-03T11:53:01;10.80;99.90
20750;DHT22;10535;50.664;4.564;2023-02-03T11:55:39;10.90;99.90
20750;DHT22;10535;50.664;4.564;2023-02-03T12:06:19;10.60;99.90
20750;DHT22;10535;50.664;4.564;2023-02-03T12:08:52;10.70;99.90
20750;DHT22;10535;50.664;4.564;2023-02-03T12:17:39;10.50;99.90
20750;DHT22;10535;50.664;4.564;2023-02-03T12:28:05;10.40;99.90
20750;DHT22;10535;50.664;4.564;2023-02-03T12:30:38;10.30;99.90
20750;DHT22;10535;50.664;4.564;2023-02-03T12:33:20;10.30;99.90
20750;DHT22;10535;50.664;4.564;2023-02-03T12:35:56;10.30;99.90
20750;DHT22;10535;50.664;4.564;2023-02-03T12:38:38;10.40;99.90
20750;DHT22;10535;50.664;4.564;2023-02-03T12:41:14;10.40;99.90
20750;DHT22;10535;50.664;4.564;2023-02-03T12:43:43;10.30;99.90
20750;DHT22;10535;50.664;4.564;2023-02-03T12:46:27;10.40;99.90
20750;DHT22;10535;50.664;4.564;2023-02-03T12:51:45;10.50;99.90
20750;DHT22;10535;50.664;4.564;2023-02-03T12:57:36;10.50;99.90
20750;DHT22;10535;50.664;4.564;2023-02-03T13:01:06;10.50;99.90
20750;DHT22;10535;50.664;4.564;2023-02-03T13:03:27;10.60;99.90
20750;DHT22;10535;50.664;4.564;2023-02-03T13:06:21;10.70;99.90
20750;DHT22;10535;50.664;4.564;2023-02-03T13:11:37;10.80;99.90
20750;DHT22;10535;50.664;4.564;2023-02-03T13:16:42;10.80;99.90
20750;DHT22;10535;50.664;4.564;2023-02-03T13:19:19;10.90;99.90
20750;DHT22;10535;50.664;4.564;2023-02-03T13:21:47;11.10;99.90
20750;DHT22;10535;50.664;4.564;2023-02-03T13:24:14;11.10;99.90
20750;DHT22;10535;50.664;4.564;2023-02-03T13:34:51;11.20;99.90
20750;DHT22;10535;50.664;4.564;2023-02-03T13:42:45;11.10;99.90
20750;DHT22;10535;50.664;4.564;2023-02-03T13:45:29;11.20;99.90
20750;DHT22;10535;50.664;4.564;2023-02-03T13:48:16;11.10;99.90
20750;DHT22;10535;50.664;4.564;2023-02-03T13:50:44;11.10;99.90
20750;DHT22;10535;50.664;4.564;2023-02-03T13:53:20;11.10;99.90
20750;DHT22;10535;50.664;4.564;2023-02-03T13:55:58;11.10;99.90
20750;DHT22;10535;50.664;4.564;2023-02-03T13:58:32;11.10;99.90
20750;DHT22;10535;50.664;4.564;2023-02-03T14:01:05;11.10;99.90
20750;DHT22;10535;50.664;4.564;2023-02-03T14:06:00;11.10;99.90
20750;DHT22;10535;50.664;4.564;2023-02-03T14:16:45;11.40;99.90
20750;DHT22;10535;50.664;4.564;2023-02-03T14:22:00;11.20;99.90
20750;DHT22;10535;50.664;4.564;2023-02-03T14:24:35;11.20;99.90
20750;DHT22;10535;50.664;4.564;2023-02-03T14:30:12;11.20;99.90
20750;DHT22;10535;50.664;4.564;2023-02-03T14:33:05;11.30;99.90
20750;DHT22;10535;50.664;4.564;2023-02-03T14:35:32;11.30;99.90
20750;DHT22;10535;50.664;4.564;2023-02-03T14:38:10;11.20;99.90
20750;DHT22;10535;50.664;4.564;2023-02-03T14:43:41;11.10;99.90
20750;DHT22;10535;50.664;4.564;2023-02-03T14:57:52;11.30;99.90
20750;DHT22;10535;50.664;4.564;2023-02-03T15:03:23;11.20;99.90
20750;DHT22;10535;50.664;4.564;2023-02-03T15:05:50;11.20;99.90
20750;DHT22;10535;50.664;4.564;2023-02-03T15:08:40;11.20;99.90
20750;DHT22;10535;50.664;4.564;2023-02-03T15:11:25;11.20;99.90
20750;DHT22;10535;50.664;4.564;2023-02-03T15:13:52;11.20;99.90
20750;DHT22;10535;50.664;4.564;2023-02-03T15:16:21;11.20;99.90
20750;DHT22;10535;50.664;4.564;2023-02-03T15:18:58;11.20;99.90
20750;DHT22;10535;50.664;4.564;2023-02-03T15:21:25;11.20;99.90
20750;DHT22;10535;50.664;4.564;2023-02-03T15:23:52;11.30;99.90
20750;DHT22;10535;50.664;4.564;2023-02-03T15:26:23;11.40;99.90
20750;DHT22;10535;50.664;4.564;2023-02-03T15:28:58;11.40;99.90
20750;DHT22;10535;50.664;4.564;2023-02-03T15:31:30;11.30;99.90
20750;DHT22;10535;50.664;4.564;2023-02-03T15:34:02;11.20;99.90
20750;DHT22;10535;50.664;4.564;2023-02-03T15:36:42;11.20;99.90
20750;DHT22;10535;50.664;4.564;2023-02-03T15:41:56;11.30;99.90
20750;DHT22;10535;50.664;4.564;2023-02-03T15:44:29;11.30;99.90
20750;DHT22;10535;50.664;4.564;2023-02-03T15:46:57;11.30;99.90
20750;DHT22;10535;50.664;4.564;2023-02-03T15:49:26;11.30;99.90
20750;DHT22;10535;50.664;4.564;2023-02-03T15:51:59;11.30;99.90
20750;DHT22;10535;50.664;4.564;2023-02-03T15:54:31;11.40;99.90
20750;DHT22;10535;50.664;4.564;2023-02-03T15:57:21;11.40;99.90
20750;DHT22;10535;50.664;4.564;2023-02-03T16:03:13;11.40;99.90
20750;DHT22;10535;50.664;4.564;2023-02-03T16:05:40;11.40;99.90
20750;DHT22;10535;50.664;4.564;2023-02-03T16:08:37;11.40;99.90
20750;DHT22;10535;50.664;4.564;2023-02-03T16:13:53;11.50;99.90
20750;DHT22;10535;50.664;4.564;2023-02-03T16:16:42;11.50;99.90
20750;DHT22;10535;50.664;4.564;2023-02-03T16:19:15;11.50;99.90
20750;DHT22;10535;50.664;4.564;2023-02-03T16:24:35;11.50;99.90
20750;DHT22;10535;50.664;4.564;2023-02-03T16:29:50;11.40;99.90
20750;DHT22;10535;50.664;4.564;2023-02-03T16:32:34;11.20;99.90
20750;DHT22;10535;50.664;4.564;2023-02-03T16:35:19;11.20;99.90
20750;DHT22;10535;50.664;4.564;2023-02-03T16:38:13;11.10;99.90
20750;DHT22;10535;50.664;4.564;2023-02-03T16:40:57;11.30;99.90
20750;DHT22;10535;50.664;4.564;2023-02-03T16:43:41;11.20;99.90
20750;DHT22;10535;50.664;4.564;2023-02-03T16:46:26;11.20;99.90
20750;DHT22;10535;50.664;4.564;2023-02-03T16:49:10;11.10;99.90
20750;DHT22;10535;50.664;4.564;2023-02-03T16:51:54;11.20;99.90
20750;DHT22;10535;50.664;4.564;2023-02-03T16:54:20;11.10;99.90
20750;DHT22;10535;50.664;4.564;2023-02-03T16:56:46;10.90;99.90
20750;DHT22;10535;50.664;4.564;2023-02-03T16:59:11;11.00;99.90
20750;DHT22;10535;50.664;4.564;2023-02-03T17:01:38;11.00;99.90
20750;DHT22;10535;50.664;4.564;2023-02-03T17:04:04;11.00;99.90
20750;DHT22;10535;50.664;4.564;2023-02-03T17:06:29;11.00;99.90
20750;DHT22;10535;50.664;4.564;2023-02-03T17:08:57;11.00;99.90
20750;DHT22;10535;50.664;4.564;2023-02-03T17:11:23;10.80;99.90
20750;DHT22;10535;50.664;4.564;2023-02-03T17:13:49;10.80;99.90
20750;DHT22;10535;50.664;4.564;2023-02-03T17:16:18;10.70;99.90
20750;DHT22;10535;50.664;4.564;2023-02-03T17:18:44;10.60;99.90
20750;DHT22;10535;50.664;4.564;2023-02-03T17:21:15;10.60;99.90
20750;DHT22;10535;50.664;4.564;2023-02-03T17:23:41;10.60;99.90
20750;DHT22;10535;50.664;4.564;2023-02-03T17:26:07;10.60;99.90
20750;DHT22;10535;50.664;4.564;2023-02-03T17:28:33;10.60;99.90
20750;DHT22;10535;50.664;4.564;2023-02-03T17:31:02;10.60;99.90
20750;DHT22;10535;50.664;4.564;2023-02-03T17:33:30;10.60;99.90
20750;DHT22;10535;50.664;4.564;2023-02-03T17:36:12;10.70;99.90
20750;DHT22;10535;50.664;4.564;2023-02-03T17:38:46;10.70;99.90
20750;DHT22;10535;50.664;4.564;2023-02-03T17:41:18;10.70;99.90
20750;DHT22;10535;50.664;4.564;2023-02-03T17:43:44;10.80;99.90
20750;DHT22;10535;50.664;4.564;2023-02-03T17:46:12;10.80;99.90
20750;DHT22;10535;50.664;4.564;2023-02-03T17:48:38;10.70;99.90
20750;DHT22;10535;50.664;4.564;2023-02-03T17:51:09;10.60;99.90
20750;DHT22;10535;50.664;4.564;2023-02-03T17:53:38;10.60;99.90
20750;DHT22;10535;50.664;4.564;2023-02-03T17:56:11;10.60;99.90
20750;DHT22;10535;50.664;4.564;2023-02-03T17:58:37;10.60;99.90
20750;DHT22;10535;50.664;4.564;2023-02-03T18:01:10;10.60;99.90
20750;DHT22;10535;50.664;4.564;2023-02-03T18:04:00;10.50;99.90
20750;DHT22;10535;50.664;4.564;2023-02-03T18:06:28;10.50;99.90
20750;DHT22;10535;50.664;4.564;2023-02-03T18:08:54;10.60;99.90
20750;DHT22;10535;50.664;4.564;2023-02-03T18:11:26;10.60;99.90
20750;DHT22;10535;50.664;4.564;2023-02-03T18:13:52;10.60;99.90
20750;DHT22;10535;50.664;4.564;2023-02-03T18:16:21;10.70;99.90
20750;DHT22;10535;50.664;4.564;2023-02-03T18:18:51;10.80;99.90
20750;DHT22;10535;50.664;4.564;2023-02-03T18:21:18;10.80;99.90